Time;durP1;ratioP1;P1;durP2;ratioP2;P2;SDS_P1;SDS_P2;PMS_P1;PMS_P2;Temp;Humidity;BMP_temperature;BMP_pressure;BME280_temperature;BME280_humidity;BME280_pressure;Samples;Min_cycle;Max_cycle;Signal;HPM_P1;HPM_P2
2021/01/23 00:00:52;;;;;;;6.65;3.95;;;2.20;91.90;;;;;;2090522;28;20082;-79
2021/01/23 00:01:53;;;;;;;6.45;3.90;;;2.20;91.90;;;;;;2093474;28;20024;-79
2021/01/23 00:02:53;;;;;;;7.45;3.97;;;2.30;91.90;;;;;;2080694;28;20043;-80
2021/01/23 00:03:54;;;;;;;6.50;3.70;;;2.20;91.90;;;;;;2080652;28;20076;-80
2021/01/23 00:04:55;;;;;;;6.47;3.83;;;2.20;91.90;;;;;;2080353;28;21614;-79
2021/01/23 00:05:55;;;;;;;7.95;4.32;;;2.20;91.90;;;;;;2086983;28;20029;-80
2021/01/23 00:06:56;;;;;;;7.32;4.35;;;2.30;92.00;;;;;;2088174;28;20025;-80
2021/01/23 00:08:01;;;;;;;7.72;4.20;;;2.20;91.90;;;;;;2082726;28;20032;-80
2021/01/23 00:09:02;;;;;;;7.53;3.85;;;2.20;91.90;;;;;;2087273;28;20075;-80
2021/01/23 00:10:05;;;;;;;7.13;3.95;;;2.30;92.00;;;;;;2086263;28;20040;-82
2021/01/23 00:11:05;;;;;;;6.53;3.60;;;2.20;91.90;;;;;;2082972;28;20021;-82
2021/01/23 00:12:06;;;;;;;8.23;4.18;;;2.20;91.90;;;;;;2082468;28;20025;-82
2021/01/23 00:13:07;;;;;;;8.25;4.07;;;2.20;91.90;;;;;;2084964;28;20476;-82
2021/01/23 00:14:08;;;;;;;6.80;4.03;;;2.20;91.90;;;;;;2084970;28;20106;-82
2021/01/23 00:15:09;;;;;;;6.80;3.67;;;2.20;91.90;;;;;;2087665;28;20124;-80
2021/01/23 00:16:10;;;;;;;6.82;4.00;;;2.20;91.90;;;;;;2097140;28;20085;-80
2021/01/23 00:17:11;;;;;;;6.55;3.88;;;2.30;92.00;;;;;;2098219;28;20089;-80
2021/01/23 00:18:11;;;;;;;9.27;4.45;;;2.30;92.00;;;;;;2082539;28;20554;-80
2021/01/23 00:19:12;;;;;;;8.93;4.20;;;2.30;92.00;;;;;;2082147;28;20026;-80
2021/01/23 00:20:13;;;;;;;7.22;3.70;;;2.30;91.90;;;;;;2087216;28;20066;-80
2021/01/23 00:21:13;;;;;;;7.28;4.25;;;2.30;91.90;;;;;;2088863;28;20108;-80
2021/01/23 00:22:14;;;;;;;8.20;3.97;;;2.30;91.90;;;;;;2089526;28;20025;-80
2021/01/23 00:23:14;;;;;;;7.57;4.28;;;2.30;91.90;;;;;;2082354;28;20036;-80
2021/01/23 00:24:15;;;;;;;8.35;4.55;;;2.30;91.90;;;;;;2065949;28;20162;-82
2021/01/23 00:25:16;;;;;;;8.80;4.47;;;2.30;91.90;;;;;;2066016;28;20057;-81
2021/01/23 00:26:17;;;;;;;7.03;4.30;;;2.30;91.90;;;;;;2076143;28;20209;-80
2021/01/23 00:27:18;;;;;;;9.05;4.43;;;2.30;91.90;;;;;;2086722;28;20120;-80
2021/01/23 00:28:19;;;;;;;6.50;4.18;;;2.30;91.90;;;;;;2090020;28;20036;-80
2021/01/23 00:29:19;;;;;;;6.82;4.00;;;2.30;91.90;;;;;;2080204;28;20474;-80
2021/01/23 00:30:20;;;;;;;9.05;4.50;;;2.30;91.90;;;;;;2081785;28;20034;-81
2021/01/23 00:31:21;;;;;;;7.70;4.70;;;2.30;91.90;;;;;;2093709;28;20107;-80
2021/01/23 00:32:22;;;;;;;6.70;4.05;;;2.30;91.80;;;;;;2093205;28;20028;-80
2021/01/23 00:33:22;;;;;;;7.32;4.50;;;2.30;91.80;;;;;;2100217;28;20021;-81
2021/01/23 00:34:23;;;;;;;7.35;3.97;;;2.30;91.80;;;;;;2085323;28;20489;-80
2021/01/23 00:35:24;;;;;;;8.48;4.30;;;2.30;91.90;;;;;;2071681;28;20030;-80
2021/01/23 00:36:24;;;;;;;8.40;4.32;;;2.30;91.90;;;;;;2089436;28;20036;-80
2021/01/23 00:37:25;;;;;;;7.53;4.32;;;2.30;91.90;;;;;;2086866;28;20033;-80
2021/01/23 00:38:25;;;;;;;7.32;3.97;;;2.40;91.90;;;;;;2092715;28;20060;-80
2021/01/23 00:39:26;;;;;;;6.72;4.13;;;2.30;91.90;;;;;;2101239;28;20021;-79
2021/01/23 00:40:27;;;;;;;7.55;4.00;;;2.30;91.80;;;;;;2085318;28;20079;-80
2021/01/23 00:41:27;;;;;;;7.40;4.13;;;2.30;91.80;;;;;;2084337;28;20038;-80
2021/01/23 00:42:28;;;;;;;6.50;3.88;;;2.40;91.90;;;;;;2091115;28;20041;-80
2021/01/23 00:43:28;;;;;;;6.57;3.88;;;2.40;91.90;;;;;;2089828;28;20021;-80
2021/01/23 00:44:29;;;;;;;8.27;4.22;;;2.30;91.80;;;;;;2089493;28;20035;-79
2021/01/23 00:45:30;;;;;;;7.10;4.13;;;2.30;91.90;;;;;;2085731;28;20033;-80
2021/01/23 00:46:30;;;;;;;5.90;3.80;;;2.30;91.90;;;;;;2090554;28;20075;-79
2021/01/23 00:47:31;;;;;;;6.75;3.85;;;2.30;91.90;;;;;;2090646;28;20095;-80
2021/01/23 00:48:31;;;;;;;7.63;4.30;;;2.30;91.90;;;;;;2077441;28;20029;-80
2021/01/23 00:49:32;;;;;;;7.13;3.88;;;2.30;91.80;;;;;;2097992;28;20125;-80
2021/01/23 00:50:33;;;;;;;7.68;4.07;;;2.40;91.90;;;;;;2094418;28;20032;-80
2021/01/23 00:51:33;;;;;;;6.25;3.80;;;2.30;91.80;;;;;;2075095;28;20036;-81
2021/01/23 00:52:35;;;;;;;7.55;3.80;;;2.30;91.90;;;;;;2081726;28;20025;-80
2021/01/23 00:53:35;;;;;;;6.35;3.90;;;2.30;91.90;;;;;;2090020;28;20029;-80
2021/01/23 00:54:36;;;;;;;8.35;4.05;;;2.30;91.90;;;;;;2090402;28;20036;-80
2021/01/23 00:55:37;;;;;;;9.25;4.28;;;2.30;91.90;;;;;;2082870;28;20552;-80
2021/01/23 00:56:38;;;;;;;6.85;3.92;;;2.30;91.90;;;;;;2082694;28;20025;-80
2021/01/23 00:57:38;;;;;;;6.53;3.83;;;2.30;91.90;;;;;;2088261;28;20121;-80
2021/01/23 00:58:40;;;;;;;7.00;4.00;;;2.30;91.90;;;;;;2099292;28;20047;-81
2021/01/23 00:59:41;;;;;;;6.47;3.88;;;2.30;91.90;;;;;;2094988;28;20025;-80
2021/01/23 01:00:41;;;;;;;6.80;4.18;;;2.30;91.90;;;;;;2085103;28;20059;-80
2021/01/23 01:01:42;;;;;;;7.40;3.80;;;2.30;91.90;;;;;;2080608;28;20037;-80
2021/01/23 01:02:43;;;;;;;6.13;3.53;;;2.30;91.90;;;;;;2089698;28;20410;-81
2021/01/23 01:03:43;;;;;;;6.30;3.90;;;2.30;91.90;;;;;;2082929;28;20022;-80
2021/01/23 01:04:44;;;;;;;7.30;4.15;;;2.30;91.90;;;;;;2081932;28;20041;-81
2021/01/23 01:05:44;;;;;;;7.22;3.97;;;2.30;91.90;;;;;;2087523;28;20052;-80
2021/01/23 01:06:45;;;;;;;8.10;3.92;;;2.30;91.90;;;;;;2081834;28;20044;-81
2021/01/23 01:07:46;;;;;;;9.65;4.50;;;2.30;91.90;;;;;;2081361;28;20033;-80
2021/01/23 01:08:46;;;;;;;8.77;4.07;;;2.30;91.90;;;;;;2090264;28;20033;-80
2021/01/23 01:09:47;;;;;;;8.52;4.50;;;2.30;92.20;;;;;;2072965;28;20116;-80
2021/01/23 01:10:48;;;;;;;10.75;4.90;;;2.30;91.90;;;;;;2073083;28;20061;-80
2021/01/23 01:11:48;;;;;;;8.82;4.47;;;2.30;91.90;;;;;;2082464;28;20021;-80
2021/01/23 01:12:49;;;;;;;9.52;4.82;;;2.30;91.80;;;;;;2084968;28;20515;-80
2021/01/23 01:13:49;;;;;;;7.80;4.70;;;2.30;91.80;;;;;;2082221;28;20080;-80
2021/01/23 01:14:50;;;;;;;10.07;5.13;;;2.30;91.80;;;;;;2098418;28;20028;-80
2021/01/23 01:15:51;;;;;;;8.85;4.82;;;2.30;91.80;;;;;;2093957;28;20533;-80
2021/01/23 01:16:51;;;;;;;7.93;4.55;;;2.30;91.80;;;;;;2088572;28;20037;-80
2021/01/23 01:17:52;;;;;;;7.93;4.28;;;2.30;91.80;;;;;;2073778;28;20438;-81
2021/01/23 01:18:53;;;;;;;9.57;4.88;;;2.30;91.80;;;;;;2082134;28;20088;-80
2021/01/23 01:19:53;;;;;;;8.25;4.32;;;2.30;91.80;;;;;;2088216;28;20041;-80
2021/01/23 01:20:54;;;;;;;8.85;4.55;;;2.30;91.80;;;;;;2080368;28;20049;-80
2021/01/23 01:21:55;;;;;;;7.95;4.18;;;2.30;91.80;;;;;;2089486;28;20512;-80
2021/01/23 01:22:55;;;;;;;7.25;4.10;;;2.30;91.80;;;;;;2089583;28;20586;-80
2021/01/23 01:23:58;;;;;;;9.07;4.30;;;2.30;91.80;;;;;;2090023;28;20163;-81
2021/01/23 01:24:59;;;;;;;7.60;3.85;;;2.30;91.80;;;;;;2078861;28;20133;-80
2021/01/23 01:26:00;;;;;;;8.18;4.10;;;2.30;91.80;;;;;;2065689;28;20472;-81
2021/01/23 01:27:01;;;;;;;7.55;4.20;;;2.30;91.80;;;;;;2070167;28;20071;-81
2021/01/23 01:28:01;;;;;;;6.95;3.90;;;2.30;91.80;;;;;;2071305;28;20034;-80
2021/01/23 01:29:02;;;;;;;7.15;4.03;;;2.30;92.10;;;;;;2087349;28;20059;-81
2021/01/23 01:30:04;;;;;;;7.72;4.07;;;2.30;91.80;;;;;;2087800;28;20087;-80
2021/01/23 01:31:04;;;;;;;6.68;4.10;;;2.30;91.80;;;;;;2084279;28;20040;-81
2021/01/23 01:32:06;;;;;;;8.23;3.95;;;2.30;91.80;;;;;;2080874;28;20120;-81
2021/01/23 01:33:07;;;;;;;8.98;4.50;;;2.30;91.80;;;;;;2081940;28;20203;-81
2021/01/23 01:34:07;;;;;;;7.47;4.28;;;2.30;91.80;;;;;;2089711;28;20116;-81
2021/01/23 01:35:09;;;;;;;7.95;4.32;;;2.30;91.80;;;;;;2080940;28;20640;-81
2021/01/23 01:36:09;;;;;;;6.68;3.95;;;2.30;91.80;;;;;;2086612;28;20041;-81
2021/01/23 01:37:10;;;;;;;7.38;4.05;;;2.30;91.80;;;;;;2087880;28;20447;-81
2021/01/23 01:38:11;;;;;;;7.18;4.00;;;2.30;91.80;;;;;;2085198;28;20033;-80
2021/01/23 01:39:11;;;;;;;6.88;4.05;;;2.30;91.80;;;;;;2081557;28;20462;-81
2021/01/23 01:40:13;;;;;;;7.88;4.22;;;2.30;91.80;;;;;;2084018;28;20045;-81
2021/01/23 01:41:14;;;;;;;6.00;3.80;;;2.30;91.80;;;;;;2072880;28;20549;-81
2021/01/23 01:42:15;;;;;;;7.35;3.75;;;2.30;91.80;;;;;;2073234;28;20030;-81
2021/01/23 01:43:16;;;;;;;7.13;4.43;;;2.30;92.10;;;;;;2080137;28;20021;-80
2021/01/23 01:44:16;;;;;;;7.82;4.30;;;2.30;91.80;;;;;;2078769;28;20599;-80
2021/01/23 01:45:17;;;;;;;8.52;4.35;;;2.30;91.80;;;;;;2076575;28;20041;-80
2021/01/23 01:46:19;;;;;;;7.30;4.25;;;2.30;91.80;;;;;;2097906;28;20336;-80
2021/01/23 01:47:20;;;;;;;6.72;4.13;;;2.20;91.80;;;;;;2088491;28;20128;-80
2021/01/23 01:48:20;;;;;;;7.28;3.90;;;2.20;91.80;;;;;;2085003;28;20119;-80
2021/01/23 01:49:21;;;;;;;6.63;3.70;;;2.30;91.90;;;;;;2086703;28;20101;-80
2021/01/23 01:50:21;;;;;;;8.40;4.30;;;2.20;91.90;;;;;;2097361;28;20028;-80
2021/01/23 01:51:22;;;;;;;7.80;4.35;;;2.20;91.90;;;;;;2089607;28;20066;-81
2021/01/23 01:52:23;;;;;;;6.25;3.90;;;2.20;91.90;;;;;;2088421;28;20040;-80
2021/01/23 01:53:24;;;;;;;8.50;4.10;;;2.20;91.90;;;;;;2088815;28;20044;-80
2021/01/23 01:54:26;;;;;;;7.53;3.95;;;2.10;91.90;;;;;;2081725;28;20024;-80
2021/01/23 01:55:32;;;;;;;7.30;4.18;;;2.10;91.90;;;;;;2098320;28;20159;-81
2021/01/23 01:56:32;;;;;;;9.20;4.40;;;2.10;91.90;;;;;;2096133;28;20060;-81
2021/01/23 01:57:33;;;;;;;7.57;3.92;;;2.10;91.90;;;;;;2089343;28;20036;-82
2021/01/23 01:58:34;;;;;;;6.63;3.83;;;2.10;91.90;;;;;;2088748;28;20094;-81
2021/01/23 01:59:35;;;;;;;7.85;4.15;;;2.10;91.90;;;;;;2089623;28;20477;-81
2021/01/23 02:00:35;;;;;;;8.23;4.25;;;2.10;91.90;;;;;;2095827;28;20041;-80
2021/01/23 02:01:36;;;;;;;7.43;4.05;;;2.10;92.00;;;;;;2095207;28;20036;-80
2021/01/23 02:03:20;;;;;;;8.10;4.50;;;2.00;92.00;;;;;;2092340;28;20067;-81
2021/01/23 02:04:30;;;;;;;7.72;4.15;;;2.00;92.00;;;;;;2086655;28;20025;-80
2021/01/23 02:05:47;;;;;;;7.43;4.28;;;2.00;91.90;;;;;;2097627;28;20516;-81
2021/01/23 02:07:18;;;;;;;7.30;4.28;;;2.00;91.90;;;;;;2103624;28;20478;-81
2021/01/23 02:08:34;;;;;;;7.32;3.95;;;2.10;91.90;;;;;;2093890;28;20402;-80
2021/01/23 02:09:43;;;;;;;7.85;4.20;;;2.10;91.90;;;;;;2084340;28;20525;-81
2021/01/23 02:10:54;;;;;;;8.50;4.40;;;2.10;91.80;;;;;;2086831;28;20372;-81
2021/01/23 02:12:26;;;;;;;7.35;4.30;;;2.10;91.80;;;;;;2081698;28;20049;-80
2021/01/23 02:13:30;;;;;;;7.88;3.90;;;2.10;91.80;;;;;;2089086;28;20397;-81
2021/01/23 02:14:50;;;;;;;7.72;3.90;;;2.10;91.80;;;;;;2089253;28;20029;-81
2021/01/23 02:16:10;;;;;;;7.30;3.90;;;2.10;91.80;;;;;;2083078;28;20076;-80
2021/01/23 02:17:14;;;;;;;7.05;3.83;;;2.10;91.70;;;;;;2082009;28;20124;-81
2021/01/23 02:18:17;;;;;;;7.32;3.72;;;2.10;91.70;;;;;;2083542;28;20448;-81
2021/01/23 02:19:48;;;;;;;9.80;4.40;;;2.10;91.70;;;;;;2089133;28;20406;-81
2021/01/23 02:21:32;;;;;;;7.47;3.80;;;2.20;91.70;;;;;;2084343;28;20048;-81
2021/01/23 02:23:09;;;;;;;6.18;4.00;;;2.20;91.70;;;;;;2081320;28;20041;-81
2021/01/23 02:24:10;;;;;;;8.48;3.80;;;2.20;91.70;;;;;;2081087;28;20368;-81
2021/01/23 02:25:11;;;;;;;7.15;3.90;;;2.20;91.60;;;;;;2089175;28;20040;-81
2021/01/23 02:26:29;;;;;;;6.80;3.85;;;2.20;91.90;;;;;;2076243;28;20523;-81
2021/01/23 02:27:55;;;;;;;8.05;4.00;;;2.20;91.60;;;;;;2071027;28;20711;-81
2021/01/23 02:29:01;;;;;;;8.45;4.18;;;2.20;91.60;;;;;;2096202;28;20032;-81
2021/01/23 02:30:18;;;;;;;7.88;4.03;;;2.20;91.60;;;;;;2097267;28;20447;-82
2021/01/23 02:31:22;;;;;;;7.75;4.35;;;2.20;91.60;;;;;;2089375;28;20024;-83
2021/01/23 02:32:28;;;;;;;7.30;4.00;;;2.10;91.60;;;;;;2090332;28;20033;-84
2021/01/23 02:33:35;;;;;;;10.15;4.68;;;2.10;91.60;;;;;;2087197;28;20406;-82
2021/01/23 02:34:41;;;;;;;7.05;4.18;;;2.10;91.60;;;;;;2084802;28;20144;-83
2021/01/23 02:35:44;;;;;;;7.45;4.18;;;2.10;91.60;;;;;;2096401;28;20478;-83
2021/01/23 02:36:47;;;;;;;7.18;4.15;;;2.10;91.70;;;;;;2088338;28;20119;-83
2021/01/23 02:37:50;;;;;;;7.72;4.32;;;2.10;91.70;;;;;;2085303;28;20087;-83
2021/01/23 02:38:52;;;;;;;8.63;4.68;;;2.20;91.70;;;;;;2094617;28;20055;-84
2021/01/23 02:39:53;;;;;;;6.47;4.15;;;2.20;91.70;;;;;;2081875;28;20087;-82
2021/01/23 02:40:54;;;;;;;6.97;4.18;;;2.20;91.70;;;;;;2078671;28;20021;-82
2021/01/23 02:42:07;;;;;;;7.65;4.43;;;2.20;91.70;;;;;;2073724;28;20526;-83
2021/01/23 02:43:11;;;;;;;6.88;4.10;;;2.20;91.70;;;;;;2087332;28;20029;-84
2021/01/23 02:44:12;;;;;;;7.88;4.50;;;2.20;91.70;;;;;;2096550;28;20111;-83
2021/01/23 02:45:12;;;;;;;9.15;4.90;;;2.20;91.70;;;;;;2088337;28;20029;-83
2021/01/23 02:46:16;;;;;;;7.38;4.50;;;2.30;91.70;;;;;;2080932;28;20065;-83
2021/01/23 02:47:17;;;;;;;7.80;4.60;;;2.30;91.70;;;;;;2088627;28;20017;-82
2021/01/23 02:48:18;;;;;;;8.65;4.55;;;2.30;91.70;;;;;;2090044;28;20099;-83
2021/01/23 02:49:20;;;;;;;9.07;5.05;;;2.30;91.60;;;;;;2097103;28;20107;-83
2021/01/23 02:50:21;;;;;;;8.60;4.63;;;2.30;91.60;;;;;;2087187;28;20059;-83
2021/01/23 02:51:22;;;;;;;10.88;4.95;;;2.30;91.60;;;;;;2080659;28;20029;-82
2021/01/23 02:53:07;;;;;;;9.25;4.95;;;2.40;91.60;;;;;;2079703;28;20030;-82
2021/01/23 02:54:19;;;;;;;10.05;4.85;;;2.40;91.60;;;;;;2078505;28;20536;-83
2021/01/23 02:55:25;;;;;;;8.93;4.88;;;2.40;91.80;;;;;;2084306;28;20037;-82
2021/01/23 02:56:27;;;;;;;7.72;4.78;;;2.40;91.50;;;;;;2087214;28;20033;-82
2021/01/23 02:57:28;;;;;;;8.52;4.80;;;2.40;91.50;;;;;;2080818;28;20496;-82
2021/01/23 02:58:31;;;;;;;7.50;4.70;;;2.40;91.50;;;;;;2079202;28;20407;-82
2021/01/23 02:59:34;;;;;;;9.07;5.13;;;2.40;91.60;;;;;;2077927;28;20040;-82
2021/01/23 03:00:36;;;;;;;8.77;5.05;;;2.30;91.60;;;;;;2085977;28;20044;-82
2021/01/23 03:01:40;;;;;;;9.07;5.05;;;2.40;91.60;;;;;;2081225;28;20474;-83
2021/01/23 03:02:51;;;;;;;6.97;4.65;;;2.40;91.60;;;;;;2081489;28;20029;-82
2021/01/23 03:03:55;;;;;;;9.15;4.95;;;2.40;91.60;;;;;;2081676;28;20052;-81
2021/01/23 03:04:58;;;;;;;9.18;4.93;;;2.40;91.60;;;;;;2083805;28;20467;-80
2021/01/23 03:06:03;;;;;;;7.13;4.55;;;2.40;91.60;;;;;;2088182;28;20375;-80
2021/01/23 03:07:05;;;;;;;6.75;4.20;;;2.40;91.70;;;;;;2089845;28;20144;-83
2021/01/23 03:08:06;;;;;;;8.07;4.82;;;2.40;91.60;;;;;;2079952;28;20048;-80
2021/01/23 03:09:18;;;;;;;8.07;4.60;;;2.40;91.60;;;;;;2088720;28;20025;-81
2021/01/23 03:10:44;;;;;;;7.68;4.80;;;2.50;91.60;;;;;;2094204;28;20028;-80
2021/01/23 03:11:45;;;;;;;7.63;4.32;;;2.50;91.60;;;;;;2082695;28;20021;-81
2021/01/23 03:12:46;;;;;;;8.27;4.88;;;2.50;91.60;;;;;;2083794;28;20071;-80
2021/01/23 03:13:46;;;;;;;7.35;4.90;;;2.50;91.60;;;;;;2088900;28;20033;-79
2021/01/23 03:14:47;;;;;;;9.05;4.70;;;2.50;91.60;;;;;;2086936;28;20037;-80
2021/01/23 03:15:48;;;;;;;9.60;5.10;;;2.50;91.60;;;;;;2088953;28;20446;-81
2021/01/23 03:16:50;;;;;;;8.25;5.20;;;2.50;91.60;;;;;;2089919;28;20104;-81
2021/01/23 03:17:51;;;;;;;7.18;4.65;;;2.50;91.60;;;;;;2086656;28;20200;-80
2021/01/23 03:18:51;;;;;;;8.02;4.88;;;2.50;91.50;;;;;;2077410;28;20028;-80
2021/01/23 03:19:52;;;;;;;6.97;4.93;;;2.60;91.60;;;;;;2087295;28;20017;-79
2021/01/23 03:20:52;;;;;;;8.88;5.22;;;2.50;91.50;;;;;;2082365;28;20040;-79
2021/01/23 03:21:53;;;;;;;9.05;5.25;;;2.50;91.60;;;;;;2079734;28;20028;-80
2021/01/23 03:22:55;;;;;;;9.07;5.22;;;2.60;91.60;;;;;;2072213;28;20133;-80
2021/01/23 03:23:55;;;;;;;7.80;4.93;;;2.60;91.60;;;;;;2089068;28;20029;-80
2021/01/23 03:24:56;;;;;;;8.48;5.03;;;2.60;91.60;;;;;;2086811;28;20067;-81
2021/01/23 03:25:56;;;;;;;8.00;5.35;;;2.60;91.60;;;;;;2088964;28;20455;-80
2021/01/23 03:26:57;;;;;;;7.65;4.88;;;2.60;91.60;;;;;;2090248;28;20059;-81
2021/01/23 03:27:59;;;;;;;8.05;4.78;;;2.60;91.60;;;;;;2086072;28;20025;-81
2021/01/23 03:28:59;;;;;;;7.25;4.90;;;2.60;91.60;;;;;;2081690;28;20033;-80
2021/01/23 03:30:00;;;;;;;8.32;4.75;;;2.70;91.60;;;;;;2096726;28;20129;-81
2021/01/23 03:31:01;;;;;;;7.50;4.65;;;2.60;91.60;;;;;;2089933;28;20391;-81
2021/01/23 03:32:02;;;;;;;6.70;4.70;;;2.70;91.60;;;;;;2079172;28;20051;-81
2021/01/23 03:33:03;;;;;;;8.20;4.50;;;2.70;91.60;;;;;;2068865;28;20018;-80
2021/01/23 03:34:04;;;;;;;7.82;4.63;;;2.70;91.60;;;;;;2088474;28;20029;-81
2021/01/23 03:35:06;;;;;;;7.88;4.82;;;2.70;91.60;;;;;;2093225;28;20491;-81
2021/01/23 03:36:07;;;;;;;8.77;4.53;;;2.70;91.50;;;;;;2087019;28;20021;-81
2021/01/23 03:37:08;;;;;;;7.40;4.10;;;2.80;91.60;;;;;;2089047;28;20041;-81
2021/01/23 03:38:08;;;;;;;6.78;4.30;;;2.70;91.50;;;;;;2096670;28;20032;-80
2021/01/23 03:39:09;;;;;;;7.28;4.95;;;2.80;91.50;;;;;;2097064;28;20093;-81
2021/01/23 03:40:11;;;;;;;7.40;4.45;;;2.80;91.50;;;;;;2073507;28;20034;-81
2021/01/23 03:41:11;;;;;;;6.57;4.03;;;2.80;91.50;;;;;;2080695;28;20419;-81
2021/01/23 03:42:12;;;;;;;8.15;4.80;;;2.80;91.50;;;;;;2088935;28;20061;-81
2021/01/23 03:43:13;;;;;;;7.22;4.45;;;2.80;91.50;;;;;;2093071;28;20037;-80
2021/01/23 03:44:14;;;;;;;7.95;5.10;;;2.90;91.50;;;;;;2089051;28;20530;-80
2021/01/23 03:45:15;;;;;;;7.53;4.57;;;2.80;91.50;;;;;;2083846;28;20025;-80
2021/01/23 03:46:16;;;;;;;9.68;5.60;;;2.90;91.50;;;;;;2085965;28;20170;-80
2021/01/23 03:47:17;;;;;;;10.20;4.88;;;2.90;91.50;;;;;;2097374;28;20028;-81
2021/01/23 03:48:17;;;;;;;9.93;4.97;;;2.90;91.50;;;;;;2089199;28;20037;-80
2021/01/23 03:49:18;;;;;;;7.78;4.63;;;2.90;91.40;;;;;;2080207;28;20025;-80
2021/01/23 03:50:19;;;;;;;8.68;5.30;;;2.90;91.40;;;;;;2082801;28;20103;-80
2021/01/23 03:51:19;;;;;;;6.90;4.60;;;3.00;91.40;;;;;;2080744;28;20078;-80
2021/01/23 03:52:20;;;;;;;8.38;4.43;;;2.90;91.40;;;;;;2079174;28;20033;-80
2021/01/23 03:53:20;;;;;;;8.13;4.28;;;2.90;91.40;;;;;;2076793;28;20037;-80
2021/01/23 03:54:21;;;;;;;8.27;5.10;;;3.00;91.40;;;;;;2088071;28;20072;-80
2021/01/23 03:55:22;;;;;;;9.07;4.80;;;3.00;91.40;;;;;;2095461;28;20039;-81
2021/01/23 03:56:22;;;;;;;8.85;4.88;;;3.00;91.40;;;;;;2082113;28;20136;-80
2021/01/23 03:57:23;;;;;;;8.65;5.13;;;3.00;91.40;;;;;;2088969;28;20054;-81
2021/01/23 03:58:24;;;;;;;8.23;4.93;;;3.00;91.40;;;;;;2087289;28;20036;-81
2021/01/23 03:59:24;;;;;;;8.15;5.10;;;3.00;91.40;;;;;;2088622;28;20032;-80
2021/01/23 04:00:25;;;;;;;8.15;5.40;;;3.00;91.40;;;;;;2093759;28;20119;-80
2021/01/23 04:01:25;;;;;;;9.60;5.75;;;3.00;91.40;;;;;;2075446;28;20029;-81
2021/01/23 04:02:26;;;;;;;7.72;5.35;;;3.00;91.70;;;;;;2076671;28;20029;-81
2021/01/23 04:03:27;;;;;;;7.35;4.68;;;3.00;91.40;;;;;;2072262;28;20444;-81
2021/01/23 04:04:27;;;;;;;7.55;4.78;;;3.10;91.40;;;;;;2063908;28;20440;-81
2021/01/23 04:05:28;;;;;;;8.07;5.00;;;3.10;91.40;;;;;;2066591;28;20168;-81
2021/01/23 04:06:28;;;;;;;9.02;4.45;;;3.10;91.40;;;;;;2071910;28;20042;-81
2021/01/23 04:07:29;;;;;;;9.18;5.18;;;3.10;91.40;;;;;;2071160;28;20025;-81
2021/01/23 04:08:31;;;;;;;7.95;4.93;;;3.10;91.40;;;;;;2084798;28;20033;-81
2021/01/23 04:09:31;;;;;;;8.52;4.85;;;3.10;91.40;;;;;;2096644;28;20421;-80
2021/01/23 04:10:32;;;;;;;7.90;4.95;;;3.10;91.40;;;;;;2090126;28;20032;-80
2021/01/23 04:11:33;;;;;;;8.15;4.60;;;3.10;91.40;;;;;;2072803;28;20084;-81
2021/01/23 04:12:34;;;;;;;7.93;4.60;;;3.10;91.40;;;;;;2079416;28;20040;-81
2021/01/23 04:13:34;;;;;;;8.43;4.70;;;3.10;91.40;;;;;;2080395;28;20064;-81
2021/01/23 04:14:35;;;;;;;8.10;4.80;;;3.10;91.40;;;;;;2083979;28;20026;-80
2021/01/23 04:15:37;;;;;;;8.68;5.07;;;3.10;91.40;;;;;;2074211;28;20140;-81
2021/01/23 04:16:37;;;;;;;8.13;4.80;;;3.10;91.40;;;;;;2088623;28;20041;-81
2021/01/23 04:17:38;;;;;;;7.40;4.53;;;3.10;91.40;;;;;;2095294;28;20021;-80
2021/01/23 04:18:38;;;;;;;8.73;4.97;;;3.20;91.50;;;;;;2080881;28;20037;-81
2021/01/23 04:19:39;;;;;;;8.35;5.05;;;3.10;91.40;;;;;;2080533;28;20065;-81
2021/01/23 04:20:40;;;;;;;7.90;4.88;;;3.20;91.50;;;;;;2097215;28;20024;-81
2021/01/23 04:21:41;;;;;;;8.38;4.82;;;3.10;91.40;;;;;;2096805;28;20128;-81
2021/01/23 04:22:41;;;;;;;8.98;4.75;;;3.10;91.40;;;;;;2086986;28;20124;-81
2021/01/23 04:23:44;;;;;;;8.23;4.80;;;3.20;91.50;;;;;;2087774;28;20071;-81
2021/01/23 04:24:45;;;;;;;8.00;4.78;;;3.20;91.50;;;;;;2072607;28;20504;-80
2021/01/23 04:25:46;;;;;;;7.97;4.85;;;3.20;91.50;;;;;;2080218;28;20116;-80
2021/01/23 04:26:46;;;;;;;6.60;4.53;;;3.20;91.50;;;;;;2084408;28;20427;-81
2021/01/23 04:27:47;;;;;;;9.30;4.95;;;3.20;91.50;;;;;;2063233;28;20515;-80
2021/01/23 04:28:48;;;;;;;8.80;4.60;;;3.20;91.50;;;;;;2072248;28;20041;-81
2021/01/23 04:29:48;;;;;;;7.63;4.82;;;3.20;91.50;;;;;;2089363;28;20116;-81
2021/01/23 04:30:49;;;;;;;7.38;4.75;;;3.20;91.50;;;;;;2097130;28;20047;-81
2021/01/23 04:31:50;;;;;;;8.70;4.60;;;3.20;91.50;;;;;;2082251;28;20035;-81
2021/01/23 04:32:51;;;;;;;8.25;4.90;;;3.20;91.50;;;;;;2088964;28;20025;-81
2021/01/23 04:33:52;;;;;;;8.20;4.72;;;3.20;91.50;;;;;;2080757;28;20019;-81
2021/01/23 04:34:53;;;;;;;7.85;4.82;;;3.30;91.50;;;;;;2081244;28;20038;-81
2021/01/23 04:35:53;;;;;;;7.38;4.68;;;3.30;91.50;;;;;;2072363;28;20026;-80
2021/01/23 04:36:54;;;;;;;7.45;4.43;;;3.20;91.50;;;;;;2080587;28;20399;-81
2021/01/23 04:37:54;;;;;;;7.93;4.30;;;3.20;91.50;;;;;;2086426;28;20572;-81
2021/01/23 04:38:55;;;;;;;8.18;4.72;;;3.20;91.50;;;;;;2079126;28;20030;-81
2021/01/23 04:39:56;;;;;;;8.75;4.22;;;3.30;91.50;;;;;;2088704;28;20029;-81
2021/01/23 04:40:57;;;;;;;8.30;4.30;;;3.20;91.50;;;;;;2085028;28;20116;-80
2021/01/23 04:41:57;;;;;;;8.10;4.70;;;3.20;91.50;;;;;;2076165;28;20037;-80
2021/01/23 04:42:58;;;;;;;8.25;4.50;;;3.30;91.50;;;;;;2080666;28;20124;-81
2021/01/23 04:43:59;;;;;;;8.75;4.10;;;3.30;91.50;;;;;;2071681;28;20113;-80
2021/01/23 04:44:59;;;;;;;7.13;4.53;;;3.30;91.50;;;;;;2089862;28;20029;-80
2021/01/23 04:46:00;;;;;;;7.68;4.82;;;3.30;91.50;;;;;;2089628;28;20057;-81
2021/01/23 04:47:02;;;;;;;7.72;4.63;;;3.30;91.50;;;;;;2097589;28;20028;-81
2021/01/23 04:48:03;;;;;;;7.38;4.63;;;3.30;91.50;;;;;;2098174;28;20024;-81
2021/01/23 04:49:04;;;;;;;9.35;4.78;;;3.30;91.50;;;;;;2083956;28;20154;-80
2021/01/23 04:50:07;;;;;;;7.20;4.38;;;3.30;91.50;;;;;;2077215;28;20492;-80
2021/01/23 04:51:07;;;;;;;8.52;4.93;;;3.30;91.50;;;;;;2072759;28;20392;-81
2021/01/23 04:52:08;;;;;;;7.50;4.63;;;3.30;91.50;;;;;;2080620;28;20030;-80
2021/01/23 04:53:09;;;;;;;7.10;4.28;;;3.30;91.50;;;;;;2084731;28;20380;-80
2021/01/23 04:54:10;;;;;;;7.30;4.55;;;3.30;91.50;;;;;;2083954;28;20021;-80
2021/01/23 04:55:10;;;;;;;7.32;4.38;;;3.30;91.50;;;;;;2087064;28;20034;-80
2021/01/23 04:56:11;;;;;;;7.57;5.00;;;3.30;91.50;;;;;;2094667;28;20023;-80
2021/01/23 04:57:12;;;;;;;8.10;4.65;;;3.30;91.50;;;;;;2084452;28;20549;-81
2021/01/23 04:58:12;;;;;;;7.95;4.40;;;3.30;91.50;;;;;;2063934;28;20526;-81
2021/01/23 04:59:13;;;;;;;8.35;4.95;;;3.30;91.50;;;;;;2069934;28;20557;-80
2021/01/23 05:00:14;;;;;;;7.20;4.78;;;3.30;91.50;;;;;;2085485;28;20131;-80
2021/01/23 05:01:15;;;;;;;8.50;4.63;;;3.30;91.60;;;;;;2081450;28;20034;-80
2021/01/23 05:02:22;;;;;;;8.82;4.80;;;3.30;91.60;;;;;;2087828;28;20444;-80
2021/01/23 05:03:23;;;;;;;9.00;4.60;;;3.30;91.60;;;;;;2081868;28;20503;-80
2021/01/23 05:04:23;;;;;;;7.95;5.00;;;3.30;91.60;;;;;;2082139;28;20037;-80
2021/01/23 05:05:24;;;;;;;7.72;5.03;;;3.30;91.60;;;;;;2084130;28;20029;-80
2021/01/23 05:06:26;;;;;;;6.90;4.35;;;3.30;91.60;;;;;;2082222;28;20115;-81
2021/01/23 05:07:37;;;;;;;7.55;5.13;;;3.30;91.60;;;;;;2081245;28;20022;-80
2021/01/23 05:08:39;;;;;;;8.48;4.85;;;3.30;91.60;;;;;;2093919;28;20508;-80
2021/01/23 05:09:39;;;;;;;7.35;4.70;;;3.30;91.60;;;;;;2098194;28;20074;-80
2021/01/23 05:10:41;;;;;;;8.73;5.25;;;3.30;91.60;;;;;;2089525;28;20074;-80
2021/01/23 05:11:48;;;;;;;7.10;4.47;;;3.30;91.60;;;;;;2074161;28;20116;-80
2021/01/23 05:12:53;;;;;;;7.55;4.43;;;3.30;91.60;;;;;;2076499;28;20067;-80
2021/01/23 05:14:11;;;;;;;7.28;4.70;;;3.30;91.60;;;;;;2078202;28;20124;-80
2021/01/23 05:15:26;;;;;;;8.77;4.88;;;3.30;91.60;;;;;;2087870;28;20053;-80
2021/01/23 05:16:26;;;;;;;9.05;4.43;;;3.30;91.60;;;;;;2096319;28;20029;-81
2021/01/23 05:17:27;;;;;;;7.80;4.85;;;3.30;91.60;;;;;;2090372;28;20036;-80
2021/01/23 05:18:28;;;;;;;7.78;4.82;;;3.30;91.60;;;;;;2082088;28;20456;-80
2021/01/23 05:19:40;;;;;;;9.05;5.30;;;3.30;91.60;;;;;;2091237;28;20522;-80
2021/01/23 05:20:53;;;;;;;9.77;5.50;;;3.30;91.60;;;;;;2089312;28;20056;-80
2021/01/23 05:22:00;;;;;;;9.30;5.05;;;3.30;91.60;;;;;;2074646;28;20081;-80
2021/01/23 05:23:20;;;;;;;7.63;4.85;;;3.30;91.60;;;;;;2082948;28;20144;-80
2021/01/23 05:24:20;;;;;;;8.02;4.93;;;3.30;91.60;;;;;;2089813;28;20025;-80
2021/01/23 05:25:26;;;;;;;8.23;4.78;;;3.20;91.60;;;;;;2088860;28;20610;-81
2021/01/23 05:26:26;;;;;;;8.15;5.25;;;3.20;91.60;;;;;;2083900;28;20025;-81
2021/01/23 05:27:43;;;;;;;8.02;4.60;;;3.20;91.60;;;;;;2098295;28;20047;-81
2021/01/23 05:28:44;;;;;;;7.18;4.63;;;3.20;91.60;;;;;;2093364;28;20123;-80
2021/01/23 05:29:59;;;;;;;8.00;4.93;;;3.20;91.70;;;;;;2074446;28;20022;-80
2021/01/23 05:31:01;;;;;;;7.82;5.05;;;3.20;91.70;;;;;;2074480;28;20018;-81
2021/01/23 05:32:17;;;;;;;7.25;4.88;;;3.20;91.70;;;;;;2086142;28;20032;-81
2021/01/23 05:33:22;;;;;;;7.00;4.80;;;3.20;91.70;;;;;;2090009;28;20495;-81